Poulsbo, WA

3:23 AM PST on January 31, 2015 (GMT -0800)
Central Market Poulsbo | Change Station
CLOSE
Current Station
Personal Weather Station
Location: Poulsbo, WA
Elevation: 68 ft
Nearby Weather Stations

Elev 68 ft 47.75 °N, 122.64 °W | Updated 0 second ago

Fog
Fog
36.6 °F
Feels Like 37 °F
N
0.0
Wind Variable Wind from WSW
Gusts 0.0 mph

Today
High -- | Low -- °F
--% Chance of Precip.
Yesterday
High -- | Low -- °F
Precip. -- in
7:38 AM 5:09 PM
Waxing Gibbous, 89% visible
Pressure 30.28 in
Visibility -9999.0 miles
Clouds Overcast 200 ft
Windchill 37 °F
Dew Point 34 °F
Humidity 90%
Rainfall 0.00 in
Snow Depth Not available.
UV 0 out of 12
Pollen 5.70 out of 12
Air Quality Not available.
Flu Activity Not available.
METAR KPWT 311115Z AUTO 00000KT OVC002 M01/M01 A3028 RMK AO1

More Conditions Fewer Conditions

Pressure 30.28 in
Visibility -9999.0 miles
Clouds Overcast 200 ft
Windchill 37 °F
Dew Point 34 °F
Humidity 90%
Rainfall 0.00 in
Snow Depth Not available.
UV 0 out of 12
Pollen 5.70 out of 12
Air Quality Not available.
Flu Activity Not available.
METAR KPWT 311115Z AUTO 00000KT OVC002 M01/M01 A3028 RMK AO1

More Conditions Fewer Conditions

10-Day Weather Forecast

Almanac

Astronomy

Jan. 31, 2015 Rise Set
Actual Time
Civil Twilight
Nautical Twilight
Astronomical Twilight
Moon
Length of Visible Light
Length of Day
Tomorrow will be .
, % of the Moon is Illuminated

Today's Extremes

State Highs State Lows

Community

WunderPhotos

Upload Photos

1,792,032 photos uploaded!

WunderBlogs® & News

Nearby

Air Quality

  Air Quality AQ Index Pollutant
Not available.

Snow Depth

Station Depth Elevation

Earthquake Activity

City Distance Mag. Time & Date
Minimum magnitude displayed is 2.5.

Coastal Water Temperatures

Place Temperature

Nearby Weather Stations